sensor_id;sensor_type;location;lat;lon;timestamp;pressure;altitude;pressure_sealevel;temperature;humidity
4617;BME280;2321;42.704;23.384;2023-06-22T00:00:49;95863.78;;;20.70;100.00
4617;BME280;2321;42.704;23.384;2023-06-22T00:03:17;95867.47;;;20.63;100.00
4617;BME280;2321;42.704;23.384;2023-06-22T00:05:45;95865.75;;;20.57;100.00
4617;BME280;2321;42.704;23.384;2023-06-22T00:08:12;95874.78;;;20.63;100.00
4617;BME280;2321;42.704;23.384;2023-06-22T00:10:40;95867.47;;;20.63;100.00
4617;BME280;2321;42.704;23.384;2023-06-22T00:13:07;95864.19;;;20.61;100.00
4617;BME280;2321;42.704;23.384;2023-06-22T00:15:35;95858.88;;;20.66;100.00
4617;BME280;2321;42.704;23.384;2023-06-22T00:18:02;95866.41;;;20.64;100.00
4617;BME280;2321;42.704;23.384;2023-06-22T00:20:29;95865.81;;;20.62;100.00
4617;BME280;2321;42.704;23.384;2023-06-22T00:22:57;95854.75;;;20.46;100.00
4617;BME280;2321;42.704;23.384;2023-06-22T00:25:25;95849.91;;;20.49;100.00
4617;BME280;2321;42.704;23.384;2023-06-22T00:27:52;95845.25;;;20.44;100.00
4617;BME280;2321;42.704;23.384;2023-06-22T00:30:19;95850.31;;;20.40;100.00
4617;BME280;2321;42.704;23.384;2023-06-22T00:32:46;95839.00;;;20.43;100.00
4617;BME280;2321;42.704;23.384;2023-06-22T00:35:13;95842.28;;;20.45;100.00
4617;BME280;2321;42.704;23.384;2023-06-22T00:37:40;95840.63;;;20.27;100.00
4617;BME280;2321;42.704;23.384;2023-06-22T00:40:10;95844.09;;;20.40;100.00
4617;BME280;2321;42.704;23.384;2023-06-22T00:42:38;95836.56;;;20.42;100.00
4617;BME280;2321;42.704;23.384;2023-06-22T00:45:06;95834.84;;;20.35;100.00
4617;BME280;2321;42.704;23.384;2023-06-22T00:47:34;95836.22;;;20.21;100.00
4617;BME280;2321;42.704;23.384;2023-06-22T00:50:03;95846.84;;;20.28;100.00
4617;BME280;2321;42.704;23.384;2023-06-22T00:52:33;95850.31;;;20.23;100.00
4617;BME280;2321;42.704;23.384;2023-06-22T00:55:02;95850.03;;;20.24;100.00
4617;BME280;2321;42.704;23.384;2023-06-22T00:57:30;95847.69;;;20.28;100.00
4617;BME280;2321;42.704;23.384;2023-06-22T00:59:57;95846.28;;;20.25;100.00
4617;BME280;2321;42.704;23.384;2023-06-22T01:02:24;95847.94;;;20.27;100.00
4617;BME280;2321;42.704;23.384;2023-06-22T01:04:51;95852.59;;;20.14;100.00
4617;BME280;2321;42.704;23.384;2023-06-22T01:07:25;95849.41;;;20.17;100.00
4617;BME280;2321;42.704;23.384;2023-06-22T01:10:00;95844.56;;;20.19;100.00
4617;BME280;2321;42.704;23.384;2023-06-22T01:12:34;95859.00;;;20.13;100.00
4617;BME280;2321;42.704;23.384;2023-06-22T01:15:11;95857.75;;;20.03;100.00
4617;BME280;2321;42.704;23.384;2023-06-22T01:17:42;95856.63;;;19.99;100.00
4617;BME280;2321;42.704;23.384;2023-06-22T01:20:13;95864.88;;;19.92;100.00
4617;BME280;2321;42.704;23.384;2023-06-22T01:22:50;95864.59;;;19.94;100.00
4617;BME280;2321;42.704;23.384;2023-06-22T01:25:28;95856.16;;;19.90;100.00
4617;BME280;2321;42.704;23.384;2023-06-22T01:28:13;95849.63;;;19.86;100.00
4617;BME280;2321;42.704;23.384;2023-06-22T01:30:48;95852.88;;;19.88;100.00
4617;BME280;2321;42.704;23.384;2023-06-22T01:33:16;95851.50;;;19.86;100.00
4617;BME280;2321;42.704;23.384;2023-06-22T01:35:43;95851.50;;;19.86;100.00
4617;BME280;2321;42.704;23.384;2023-06-22T01:38:11;95850.00;;;19.78;100.00
4617;BME280;2321;42.704;23.384;2023-06-22T01:40:38;95855.72;;;19.81;100.00
4617;BME280;2321;42.704;23.384;2023-06-22T01:43:05;95865.97;;;19.79;100.00
4617;BME280;2321;42.704;23.384;2023-06-22T01:45:32;95858.19;;;19.83;100.00
4617;BME280;2321;42.704;23.384;2023-06-22T01:48:01;95862.78;;;19.83;100.00
4617;BME280;2321;42.704;23.384;2023-06-22T01:50:29;95864.47;;;19.72;100.00
4617;BME280;2321;42.704;23.384;2023-06-22T01:52:56;95863.22;;;19.50;100.00
4617;BME280;2321;42.704;23.384;2023-06-22T01:55:22;95871.31;;;19.50;100.00
4617;BME280;2321;42.704;23.384;2023-06-22T01:57:49;95874.00;;;19.62;100.00
4617;BME280;2321;42.704;23.384;2023-06-22T02:00:19;95875.97;;;19.67;100.00
4617;BME280;2321;42.704;23.384;2023-06-22T02:02:55;95875.41;;;19.65;100.00
4617;BME280;2321;42.704;23.384;2023-06-22T02:05:26;95876.22;;;19.65;100.00
4617;BME280;2321;42.704;23.384;2023-06-22T02:08:00;95872.56;;;19.72;100.00
4617;BME280;2321;42.704;23.384;2023-06-22T02:10:29;95884.16;;;19.72;100.00
4617;BME280;2321;42.704;23.384;2023-06-22T02:12:57;95883.59;;;19.70;100.00
4617;BME280;2321;42.704;23.384;2023-06-22T02:15:24;95872.69;;;19.65;100.00
4617;BME280;2321;42.704;23.384;2023-06-22T02:17:52;95873.78;;;19.52;100.00
4617;BME280;2321;42.704;23.384;2023-06-22T02:20:19;95871.66;;;19.54;100.00
4617;BME280;2321;42.704;23.384;2023-06-22T02:22:47;95871.91;;;19.52;100.00
4617;BME280;2321;42.704;23.384;2023-06-22T02:25:14;95874.59;;;19.52;100.00
4617;BME280;2321;42.704;23.384;2023-06-22T02:27:41;95871.91;;;19.52;100.00
4617;BME280;2321;42.704;23.384;2023-06-22T02:30:09;95871.91;;;19.52;100.00
4617;BME280;2321;42.704;23.384;2023-06-22T02:32:36;95867.91;;;19.55;100.00
4617;BME280;2321;42.704;23.384;2023-06-22T02:35:07;95863.31;;;19.55;100.00
4617;BME280;2321;42.704;23.384;2023-06-22T02:37:35;95868.16;;;19.53;100.00
4617;BME280;2321;42.704;23.384;2023-06-22T02:40:07;95870.50;;;19.49;100.00
4617;BME280;2321;42.704;23.384;2023-06-22T02:42:34;95867.00;;;19.37;100.00
4617;BME280;2321;42.704;23.384;2023-06-22T02:45:01;95872.97;;;19.39;100.00
4617;BME280;2321;42.704;23.384;2023-06-22T02:47:29;95868.78;;;19.31;100.00
4617;BME280;2321;42.704;23.384;2023-06-22T02:49:56;95868.88;;;19.36;100.00
4617;BME280;2321;42.704;23.384;2023-06-22T02:52:23;95874.63;;;19.40;100.00
4617;BME280;2321;42.704;23.384;2023-06-22T02:54:50;95878.72;;;19.43;100.00
4617;BME280;2321;42.704;23.384;2023-06-22T02:57:18;95882.38;;;19.36;100.00
4617;BME280;2321;42.704;23.384;2023-06-22T02:59:45;95874.63;;;19.40;100.00
4617;BME280;2321;42.704;23.384;2023-06-22T03:02:11;95888.22;;;19.45;100.00
4617;BME280;2321;42.704;23.384;2023-06-22T03:04:38;95883.88;;;19.44;100.00
4617;BME280;2321;42.704;23.384;2023-06-22T03:07:05;95879.19;;;19.40;100.00
4617;BME280;2321;42.704;23.384;2023-06-22T03:09:32;95878.28;;;19.34;100.00
4617;BME280;2321;42.704;23.384;2023-06-22T03:11:59;95882.97;;;19.26;100.00
4617;BME280;2321;42.704;23.384;2023-06-22T03:14:28;95890.69;;;19.23;100.00
4617;BME280;2321;42.704;23.384;2023-06-22T03:16:55;95892.69;;;19.15;100.00
4617;BME280;2321;42.704;23.384;2023-06-22T03:19:27;95895.63;;;19.26;100.00
4617;BME280;2321;42.704;23.384;2023-06-22T03:21:55;95899.06;;;19.21;100.00
4617;BME280;2321;42.704;23.384;2023-06-22T03:24:21;95910.75;;;19.15;100.00
4617;BME280;2321;42.704;23.384;2023-06-22T03:26:48;95914.63;;;19.19;100.00
4617;BME280;2321;42.704;23.384;2023-06-22T03:29:15;95905.63;;;19.25;100.00
4617;BME280;2321;42.704;23.384;2023-06-22T03:31:43;95901.84;;;19.26;100.00
4617;BME280;2321;42.704;23.384;2023-06-22T03:34:10;95911.31;;;19.17;100.00
4617;BME280;2321;42.704;23.384;2023-06-22T03:36:37;95904.31;;;19.04;100.00
4617;BME280;2321;42.704;23.384;2023-06-22T03:39:04;95901.47;;;19.11;100.00
4617;BME280;2321;42.704;23.384;2023-06-22T03:41:31;95909.47;;;19.17;100.00
4617;BME280;2321;42.704;23.384;2023-06-22T03:43:57;95917.81;;;19.16;100.00
4617;BME280;2321;42.704;23.384;2023-06-22T03:46:24;95917.56;;;19.05;100.00
4617;BME280;2321;42.704;23.384;2023-06-22T03:48:52;95922.72;;;19.07;100.00
4617;BME280;2321;42.704;23.384;2023-06-22T03:51:19;95913.91;;;19.00;100.00
4617;BME280;2321;42.704;23.384;2023-06-22T03:53:46;95922.00;;;19.00;100.00
4617;BME280;2321;42.704;23.384;2023-06-22T03:56:13;95931.50;;;19.02;100.00
4617;BME280;2321;42.704;23.384;2023-06-22T03:58:45;95932.81;;;19.00;100.00
4617;BME280;2321;42.704;23.384;2023-06-22T04:01:12;95937.00;;;18.95;100.00
4617;BME280;2321;42.704;23.384;2023-06-22T04:03:40;95931.13;;;18.87;100.00
4617;BME280;2321;42.704;23.384;2023-06-22T04:06:09;95935.94;;;18.84;100.00
4617;BME280;2321;42.704;23.384;2023-06-22T04:08:35;95940.97;;;18.81;100.00
4617;BME280;2321;42.704;23.384;2023-06-22T04:11:02;95933.34;;;18.78;100.00
4617;BME280;2321;42.704;23.384;2023-06-22T04:13:30;95927.38;;;18.76;100.00
4617;BME280;2321;42.704;23.384;2023-06-22T04:15:57;95912.47;;;18.73;100.00
4617;BME280;2321;42.704;23.384;2023-06-22T04:18:24;95920.22;;;18.69;100.00
4617;BME280;2321;42.704;23.384;2023-06-22T04:20:51;95911.66;;;18.72;100.00
4617;BME280;2321;42.704;23.384;2023-06-22T04:23:19;95908.63;;;18.81;100.00
4617;BME280;2321;42.704;23.384;2023-06-22T04:25:46;95909.19;;;18.83;100.00
4617;BME280;2321;42.704;23.384;2023-06-22T04:28:12;95900.53;;;18.93;100.00
4617;BME280;2321;42.704;23.384;2023-06-22T04:30:39;95909.56;;;18.99;100.00
4617;BME280;2321;42.704;23.384;2023-06-22T04:33:12;95906.19;;;19.03;100.00
4617;BME280;2321;42.704;23.384;2023-06-22T04:35:39;95902.28;;;19.11;100.00
4617;BME280;2321;42.704;23.384;2023-06-22T04:38:07;95900.44;;;19.24;100.00
4617;BME280;2321;42.704;23.384;2023-06-22T04:40:35;95906.09;;;19.34;100.00
4617;BME280;2321;42.704;23.384;2023-06-22T04:43:02;95895.66;;;19.38;100.00
4617;BME280;2321;42.704;23.384;2023-06-22T04:45:29;95899.75;;;19.41;100.00
4617;BME280;2321;42.704;23.384;2023-06-22T04:47:56;95904.78;;;19.49;100.00
4617;BME280;2321;42.704;23.384;2023-06-22T04:50:23;95910.06;;;19.56;100.00
4617;BME280;2321;42.704;23.384;2023-06-22T04:52:50;95917.44;;;19.60;100.00
4617;BME280;2321;42.704;23.384;2023-06-22T04:55:17;95921.09;;;19.54;100.00
4617;BME280;2321;42.704;23.384;2023-06-22T04:57:46;95933.06;;;19.58;100.00
4617;BME280;2321;42.704;23.384;2023-06-22T05:00:15;95938.38;;;19.53;100.00
4617;BME280;2321;42.704;23.384;2023-06-22T05:02:43;95924.84;;;19.53;100.00
4617;BME280;2321;42.704;23.384;2023-06-22T05:05:11;95927.66;;;19.58;100.00
4617;BME280;2321;42.704;23.384;2023-06-22T05:07:41;95930.94;;;19.60;100.00
4617;BME280;2321;42.704;23.384;2023-06-22T05:10:10;95912.50;;;19.57;100.00
4617;BME280;2321;42.704;23.384;2023-06-22T05:12:38;95917.41;;;19.73;100.00
4617;BME280;2321;42.704;23.384;2023-06-22T05:15:07;95922.47;;;19.81;100.00
4617;BME280;2321;42.704;23.384;2023-06-22T05:17:34;95922.56;;;19.86;100.00
4617;BME280;2321;42.704;23.384;2023-06-22T05:20:02;95922.75;;;19.97;100.00
4617;BME280;2321;42.704;23.384;2023-06-22T05:22:31;95922.72;;;20.09;100.00
4617;BME280;2321;42.704;23.384;2023-06-22T05:24:58;95930.13;;;20.13;100.00
4617;BME280;2321;42.704;23.384;2023-06-22T05:27:25;95936.72;;;20.18;100.00
4617;BME280;2321;42.704;23.384;2023-06-22T05:29:52;95928.44;;;20.24;100.00
4617;BME280;2321;42.704;23.384;2023-06-22T05:32:20;95934.69;;;20.25;100.00
4617;BME280;2321;42.704;23.384;2023-06-22T05:34:47;95946.53;;;20.24;100.00
4617;BME280;2321;42.704;23.384;2023-06-22T05:37:14;95947.97;;;20.27;100.00
4617;BME280;2321;42.704;23.384;2023-06-22T05:39:41;95949.94;;;20.31;100.00
4617;BME280;2321;42.704;23.384;2023-06-22T05:42:08;95961.38;;;20.21;100.00
4617;BME280;2321;42.704;23.384;2023-06-22T05:44:35;95951.44;;;20.39;100.00
4617;BME280;2321;42.704;23.384;2023-06-22T05:47:03;95953.63;;;20.54;100.00
4617;BME280;2321;42.704;23.384;2023-06-22T05:49:31;95959.34;;;20.58;100.00
4617;BME280;2321;42.704;23.384;2023-06-22T05:51:58;95958.22;;;20.71;100.00
4617;BME280;2321;42.704;23.384;2023-06-22T05:54:27;95951.00;;;20.77;100.00
4617;BME280;2321;42.704;23.384;2023-06-22T05:56:54;95949.69;;;20.79;100.00
4617;BME280;2321;42.704;23.384;2023-06-22T05:59:21;95947.41;;;20.88;100.00
4617;BME280;2321;42.704;23.384;2023-06-22T06:01:47;95948.75;;;21.03;100.00
4617;BME280;2321;42.704;23.384;2023-06-22T06:04:16;95944.09;;;21.16;100.00
4617;BME280;2321;42.704;23.384;2023-06-22T06:06:45;95954.00;;;21.27;100.00
4617;BME280;2321;42.704;23.384;2023-06-22T06:09:12;95948.56;;;21.44;100.00
4617;BME280;2321;42.704;23.384;2023-06-22T06:11:39;95951.16;;;21.57;100.00
4617;BME280;2321;42.704;23.384;2023-06-22T06:14:06;95949.19;;;21.69;100.00
4617;BME280;2321;42.704;23.384;2023-06-22T06:16:33;95943.63;;;21.81;100.00
4617;BME280;2321;42.704;23.384;2023-06-22T06:19:00;95943.72;;;21.86;100.00
4617;BME280;2321;42.704;23.384;2023-06-22T06:21:27;95950.94;;;21.98;100.00
4617;BME280;2321;42.704;23.384;2023-06-22T06:23:55;95950.31;;;22.13;100.00
4617;BME280;2321;42.704;23.384;2023-06-22T06:26:22;95951.28;;;22.29;100.00
4617;BME280;2321;42.704;23.384;2023-06-22T06:28:53;95941.63;;;22.39;100.00
4617;BME280;2321;42.704;23.384;2023-06-22T06:31:20;95943.13;;;22.52;100.00
4617;BME280;2321;42.704;23.384;2023-06-22T06:33:48;95942.94;;;22.64;100.00
4617;BME280;2321;42.704;23.384;2023-06-22T06:36:15;95942.31;;;22.79;100.00
4617;BME280;2321;42.704;23.384;2023-06-22T06:38:42;95940.56;;;22.95;100.00
4617;BME280;2321;42.704;23.384;2023-06-22T06:41:10;95933.03;;;23.08;100.00
4617;BME280;2321;42.704;23.384;2023-06-22T06:43:37;95936.72;;;23.24;100.00
4617;BME280;2321;42.704;23.384;2023-06-22T06:46:04;95929.44;;;23.35;100.00
4617;BME280;2321;42.704;23.384;2023-06-22T06:48:31;95928.97;;;23.49;100.00
4617;BME280;2321;42.704;23.384;2023-06-22T06:50:58;95922.78;;;23.59;100.00
4617;BME280;2321;42.704;23.384;2023-06-22T06:53:25;95922.56;;;23.66;99.03
4617;BME280;2321;42.704;23.384;2023-06-22T06:55:52;95918.56;;;23.79;97.81
4617;BME280;2321;42.704;23.384;2023-06-22T06:58:20;95917.78;;;23.89;98.04
4617;BME280;2321;42.704;23.384;2023-06-22T07:00:48;95922.72;;;23.97;95.42
4617;BME280;2321;42.704;23.384;2023-06-22T07:03:15;95921.38;;;24.05;97.46
4617;BME280;2321;42.704;23.384;2023-06-22T07:05:42;95914.31;;;24.09;97.18
4617;BME280;2321;42.704;23.384;2023-06-22T07:08:08;95922.78;;;24.13;96.46
4617;BME280;2321;42.704;23.384;2023-06-22T07:10:36;95930.34;;;24.11;94.55
4617;BME280;2321;42.704;23.384;2023-06-22T07:13:03;95926.03;;;24.10;94.08
4617;BME280;2321;42.704;23.384;2023-06-22T07:15:46;95922.47;;;24.09;93.73
4617;BME280;2321;42.704;23.384;2023-06-22T07:18:15;95920.88;;;24.19;94.02
4617;BME280;2321;42.704;23.384;2023-06-22T07:20:42;95922.81;;;24.29;93.34
4617;BME280;2321;42.704;23.384;2023-06-22T07:23:09;95923.69;;;24.40;94.01
4617;BME280;2321;42.704;23.384;2023-06-22T07:25:44;95918.28;;;24.50;93.02
4617;BME280;2321;42.704;23.384;2023-06-22T07:28:14;95915.00;;;24.64;98.69
4617;BME280;2321;42.704;23.384;2023-06-22T07:30:44;95916.38;;;24.77;92.03
4617;BME280;2321;42.704;23.384;2023-06-22T07:33:25;95929.72;;;24.89;91.45
4617;BME280;2321;42.704;23.384;2023-06-22T07:35:53;95927.56;;;24.96;89.77
4617;BME280;2321;42.704;23.384;2023-06-22T07:38:22;95927.03;;;25.10;90.85
4617;BME280;2321;42.704;23.384;2023-06-22T07:40:58;95928.66;;;25.21;90.19
4617;BME280;2321;42.704;23.384;2023-06-22T07:43:25;95933.81;;;25.33;90.63
4617;BME280;2321;42.704;23.384;2023-06-22T07:45:53;95925.34;;;25.45;84.78
4617;BME280;2321;42.704;23.384;2023-06-22T07:48:21;95930.50;;;25.52;82.87
4617;BME280;2321;42.704;23.384;2023-06-22T07:50:48;95918.81;;;25.46;83.32
4617;BME280;2321;42.704;23.384;2023-06-22T07:53:14;95920.13;;;25.65;85.12
4617;BME280;2321;42.704;23.384;2023-06-22T07:55:41;95918.47;;;25.79;85.51
4617;BME280;2321;42.704;23.384;2023-06-22T07:58:11;95922.00;;;25.91;80.88
4617;BME280;2321;42.704;23.384;2023-06-22T08:00:38;95918.41;;;26.00;79.05
4617;BME280;2321;42.704;23.384;2023-06-22T08:03:06;95912.38;;;26.09;77.41
4617;BME280;2321;42.704;23.384;2023-06-22T08:05:33;95909.03;;;26.17;75.77
4617;BME280;2321;42.704;23.384;2023-06-22T08:08:00;95909.00;;;26.22;77.35
4617;BME280;2321;42.704;23.384;2023-06-22T08:10:27;95906.25;;;26.28;75.95
4617;BME280;2321;42.704;23.384;2023-06-22T08:12:54;95906.22;;;26.33;76.36
4617;BME280;2321;42.704;23.384;2023-06-22T08:15:22;95898.88;;;26.28;77.08
4617;BME280;2321;42.704;23.384;2023-06-22T08:17:52;95888.78;;;26.29;79.23
4617;BME280;2321;42.704;23.384;2023-06-22T08:20:20;95894.44;;;26.38;84.88
4617;BME280;2321;42.704;23.384;2023-06-22T08:22:47;95897.69;;;26.45;82.64
4617;BME280;2321;42.704;23.384;2023-06-22T08:25:14;95887.00;;;26.54;81.37
4617;BME280;2321;42.704;23.384;2023-06-22T08:27:44;95879.53;;;26.65;81.79
4617;BME280;2321;42.704;23.384;2023-06-22T08:30:11;95880.56;;;26.80;86.90
4617;BME280;2321;42.704;23.384;2023-06-22T08:32:39;95883.22;;;26.85;85.30
4617;BME280;2321;42.704;23.384;2023-06-22T08:35:06;95887.81;;;26.95;85.24
4617;BME280;2321;42.704;23.384;2023-06-22T08:37:35;95887.16;;;27.03;83.25
4617;BME280;2321;42.704;23.384;2023-06-22T08:40:03;95891.25;;;27.06;77.11
4617;BME280;2321;42.704;23.384;2023-06-22T08:42:30;95894.09;;;26.95;75.23
4617;BME280;2321;42.704;23.384;2023-06-22T08:44:57;95897.84;;;27.00;76.13
4617;BME280;2321;42.704;23.384;2023-06-22T08:47:24;95893.97;;;27.06;81.31
4617;BME280;2321;42.704;23.384;2023-06-22T08:49:51;95895.88;;;27.05;79.26
4617;BME280;2321;42.704;23.384;2023-06-22T08:52:18;95890.72;;;27.04;79.92
4617;BME280;2321;42.704;23.384;2023-06-22T08:54:46;95885.16;;;27.19;85.22
4617;BME280;2321;42.704;23.384;2023-06-22T08:57:13;95877.72;;;27.25;79.02
4617;BME280;2321;42.704;23.384;2023-06-22T08:59:40;95877.72;;;27.25;75.67
4617;BME280;2321;42.704;23.384;2023-06-22T09:02:07;95872.91;;;27.41;79.99
4617;BME280;2321;42.704;23.384;2023-06-22T09:04:34;95868.41;;;27.51;78.55
4617;BME280;2321;42.704;23.384;2023-06-22T09:07:01;95864.41;;;27.68;77.14
4617;BME280;2321;42.704;23.384;2023-06-22T09:09:28;95873.00;;;27.80;74.75
4617;BME280;2321;42.704;23.384;2023-06-22T09:11:56;95869.88;;;27.92;70.60
4617;BME280;2321;42.704;23.384;2023-06-22T09:14:23;95866.63;;;28.10;69.20
4617;BME280;2321;42.704;23.384;2023-06-22T09:16:50;95868.19;;;28.16;69.90
4617;BME280;2321;42.704;23.384;2023-06-22T09:19:17;95874.41;;;28.22;68.48
4617;BME280;2321;42.704;23.384;2023-06-22T09:21:44;95876.41;;;28.35;67.36
4617;BME280;2321;42.704;23.384;2023-06-22T09:24:11;95867.47;;;28.49;69.82
4617;BME280;2321;42.704;23.384;2023-06-22T09:26:38;95878.94;;;28.51;67.85
4617;BME280;2321;42.704;23.384;2023-06-22T09:29:06;95872.88;;;28.54;69.60
4617;BME280;2321;42.704;23.384;2023-06-22T09:31:33;95873.59;;;28.60;58.73
4617;BME280;2321;42.704;23.384;2023-06-22T09:34:00;95879.53;;;28.67;60.79
4617;BME280;2321;42.704;23.384;2023-06-22T09:36:27;95875.50;;;28.79;60.11
4617;BME280;2321;42.704;23.384;2023-06-22T09:38:53;95877.06;;;28.85;57.62
4617;BME280;2321;42.704;23.384;2023-06-22T09:41:24;95871.16;;;28.92;59.57
4617;BME280;2321;42.704;23.384;2023-06-22T09:43:51;95874.13;;;28.96;55.27
4617;BME280;2321;42.704;23.384;2023-06-22T09:46:20;95875.75;;;28.97;53.29
4617;BME280;2321;42.704;23.384;2023-06-22T09:48:50;95873.63;;;29.08;54.94
4617;BME280;2321;42.704;23.384;2023-06-22T09:51:17;95869.13;;;29.17;51.19
4617;BME280;2321;42.704;23.384;2023-06-22T09:53:45;95867.41;;;29.21;49.71
4617;BME280;2321;42.704;23.384;2023-06-22T09:56:12;95862.66;;;29.27;50.93
4617;BME280;2321;42.704;23.384;2023-06-22T09:58:40;95860.84;;;29.36;51.98
4617;BME280;2321;42.704;23.384;2023-06-22T10:01:08;95853.03;;;29.44;51.19
4617;BME280;2321;42.704;23.384;2023-06-22T10:03:37;95858.31;;;29.40;50.75
4617;BME280;2321;42.704;23.384;2023-06-22T10:06:04;95852.09;;;29.48;51.24
4617;BME280;2321;42.704;23.384;2023-06-22T10:08:30;95853.03;;;29.58;50.51
4617;BME280;2321;42.704;23.384;2023-06-22T10:10:57;95849.88;;;29.65;50.85
4617;BME280;2321;42.704;23.384;2023-06-22T10:13:24;95848.56;;;29.76;50.68
4617;BME280;2321;42.704;23.384;2023-06-22T10:15:51;95849.34;;;29.91;49.84
4617;BME280;2321;42.704;23.384;2023-06-22T10:18:18;95856.28;;;29.88;49.00
4617;BME280;2321;42.704;23.384;2023-06-22T10:20:49;95841.94;;;29.91;48.56
4617;BME280;2321;42.704;23.384;2023-06-22T10:23:17;95841.31;;;29.95;49.93
4617;BME280;2321;42.704;23.384;2023-06-22T10:25:43;95841.41;;;30.04;48.92
4617;BME280;2321;42.704;23.384;2023-06-22T10:28:10;95838.44;;;30.14;50.23
4617;BME280;2321;42.704;23.384;2023-06-22T10:30:38;95833.53;;;30.25;49.82
4617;BME280;2321;42.704;23.384;2023-06-22T10:33:06;95840.75;;;30.21;47.94
4617;BME280;2321;42.704;23.384;2023-06-22T10:35:33;95843.69;;;30.24;47.02
4617;BME280;2321;42.704;23.384;2023-06-22T10:38:01;95836.34;;;30.34;45.82
4617;BME280;2321;42.704;23.384;2023-06-22T10:40:28;95838.50;;;30.37;48.10
4617;BME280;2321;42.704;23.384;2023-06-22T10:42:55;95826.06;;;30.40;47.60
4617;BME280;2321;42.704;23.384;2023-06-22T10:45:22;95818.72;;;30.49;50.23
4617;BME280;2321;42.704;23.384;2023-06-22T10:47:49;95826.38;;;30.61;47.99
4617;BME280;2321;42.704;23.384;2023-06-22T10:50:16;95814.53;;;30.75;48.68
4617;BME280;2321;42.704;23.384;2023-06-22T10:52:43;95820.56;;;30.86;47.51
4617;BME280;2321;42.704;23.384;2023-06-22T10:55:11;95818.00;;;30.89;46.38
4617;BME280;2321;42.704;23.384;2023-06-22T10:57:38;95824.97;;;30.96;46.22
4617;BME280;2321;42.704;23.384;2023-06-22T11:00:09;95819.81;;;30.94;46.24
4617;BME280;2321;42.704;23.384;2023-06-22T11:02:36;95819.69;;;30.99;47.20
4617;BME280;2321;42.704;23.384;2023-06-22T11:05:04;95824.44;;;31.08;46.85
4617;BME280;2321;42.704;23.384;2023-06-22T11:07:31;95815.34;;;31.07;45.97
4617;BME280;2321;42.704;23.384;2023-06-22T11:09:58;95809.13;;;31.16;46.89
4617;BME280;2321;42.704;23.384;2023-06-22T11:12:26;95823.19;;;31.23;46.02
4617;BME280;2321;42.704;23.384;2023-06-22T11:14:53;95815.75;;;31.24;44.16
4617;BME280;2321;42.704;23.384;2023-06-22T11:17:22;95812.16;;;31.14;44.44
4617;BME280;2321;42.704;23.384;2023-06-22T11:19:49;95812.50;;;31.13;45.54
4617;BME280;2321;42.704;23.384;2023-06-22T11:22:16;95809.91;;;31.16;45.22
4617;BME280;2321;42.704;23.384;2023-06-22T11:24:43;95801.03;;;31.19;45.69
4617;BME280;2321;42.704;23.384;2023-06-22T11:27:10;95795.88;;;31.27;44.73
4617;BME280;2321;42.704;23.384;2023-06-22T11:29:38;95791.69;;;31.29;45.27
4617;BME280;2321;42.704;23.384;2023-06-22T11:32:06;95792.66;;;31.25;44.79
4617;BME280;2321;42.704;23.384;2023-06-22T11:34:33;95782.31;;;31.30;46.19
4617;BME280;2321;42.704;23.384;2023-06-22T11:37:00;95794.31;;;31.43;47.86
4617;BME280;2321;42.704;23.384;2023-06-22T11:39:27;95794.47;;;31.47;45.67
4617;BME280;2321;42.704;23.384;2023-06-22T11:41:54;95791.25;;;31.45;44.55
4617;BME280;2321;42.704;23.384;2023-06-22T11:44:21;95790.13;;;31.46;44.72
4617;BME280;2321;42.704;23.384;2023-06-22T11:46:49;95785.91;;;31.40;46.00
4617;BME280;2321;42.704;23.384;2023-06-22T11:49:16;95778.13;;;31.42;45.81
4617;BME280;2321;42.704;23.384;2023-06-22T11:51:43;95778.63;;;31.44;44.38
4617;BME280;2321;42.704;23.384;2023-06-22T11:54:09;95768.41;;;31.36;43.79
4617;BME280;2321;42.704;23.384;2023-06-22T11:56:36;95774.56;;;31.41;44.19
4617;BME280;2321;42.704;23.384;2023-06-22T11:59:03;95784.59;;;31.37;43.74
4617;BME280;2321;42.704;23.384;2023-06-22T12:01:30;95779.75;;;31.34;44.48
4617;BME280;2321;42.704;23.384;2023-06-22T12:03:59;95787.63;;;31.27;44.06
4617;BME280;2321;42.704;23.384;2023-06-22T12:06:26;95783.06;;;31.22;45.54
4617;BME280;2321;42.704;23.384;2023-06-22T12:08:53;95778.88;;;31.16;46.65
4617;BME280;2321;42.704;23.384;2023-06-22T12:11:20;95775.94;;;31.12;48.75
4617;BME280;2321;42.704;23.384;2023-06-22T12:13:47;95783.19;;;31.08;49.77
4617;BME280;2321;42.704;23.384;2023-06-22T12:16:14;95788.94;;;30.97;49.72
4617;BME280;2321;42.704;23.384;2023-06-22T12:18:41;95783.66;;;30.78;51.65
4617;BME280;2321;42.704;23.384;2023-06-22T12:21:09;95783.91;;;30.67;51.86
4617;BME280;2321;42.704;23.384;2023-06-22T12:23:36;95770.09;;;30.50;54.12
4617;BME280;2321;42.704;23.384;2023-06-22T12:26:02;95786.09;;;30.33;54.58
4617;BME280;2321;42.704;23.384;2023-06-22T12:28:29;95792.75;;;30.18;54.89
4617;BME280;2321;42.704;23.384;2023-06-22T12:30:56;95793.84;;;30.08;55.24
4617;BME280;2321;42.704;23.384;2023-06-22T12:33:23;95803.72;;;29.95;56.02
4617;BME280;2321;42.704;23.384;2023-06-22T12:35:50;95812.06;;;29.90;56.52
4617;BME280;2321;42.704;23.384;2023-06-22T12:38:18;95823.13;;;29.85;54.70
4617;BME280;2321;42.704;23.384;2023-06-22T12:40:45;95829.66;;;29.61;59.62
4617;BME280;2321;42.704;23.384;2023-06-22T12:43:12;95829.31;;;29.20;63.36
4617;BME280;2321;42.704;23.384;2023-06-22T12:45:39;95822.41;;;28.75;65.72
4617;BME280;2321;42.704;23.384;2023-06-22T12:48:06;95822.53;;;28.50;68.91
4617;BME280;2321;42.704;23.384;2023-06-22T12:50:34;95832.88;;;28.34;69.10
4617;BME280;2321;42.704;23.384;2023-06-22T12:53:00;95835.34;;;28.16;69.40
4617;BME280;2321;42.704;23.384;2023-06-22T12:55:31;95852.56;;;27.97;69.34
4617;BME280;2321;42.704;23.384;2023-06-22T12:57:57;95850.78;;;27.87;70.62
4617;BME280;2321;42.704;23.384;2023-06-22T13:00:24;95843.19;;;27.79;72.86
4617;BME280;2321;42.704;23.384;2023-06-22T13:02:51;95841.28;;;27.79;73.81
4617;BME280;2321;42.704;23.384;2023-06-22T13:05:18;95846.16;;;27.82;73.99
4617;BME280;2321;42.704;23.384;2023-06-22T13:07:45;95854.31;;;27.88;72.12